Terminal Aerodrome Forecast
Issued by NWS Cleveland, OH

Home | Current Version | Previous Version | Text Only | Print | Product List | Glossary Off
Versions: 1 2 3 4 5 6 7 8 9 10 11 12 13 14 15 16 17 18

184
FTUS41 KCLE 241309 AAA
TAFMFD
TAF AMD
KMFD 241309Z 2413/2512 22015G25KT P6SM SCT050 BKN140
      TEMPO 2413/2415 -SHRA BKN060
     FM250000 21012KT P6SM OVC025
     FM250700 20010KT P6SM SCT035=

USA.gov is the U.S. government's official web portal to all federal, state and local government web resources and services.